Time;durP1;ratioP1;P1;durP2;ratioP2;P2;SDS_P1;SDS_P2;PMS_P1;PMS_P2;Temp;Humidity;BMP_temperature;BMP_pressure;BME280_temperature;BME280_humidity;BME280_pressure;Samples;Min_cycle;Max_cycle;Signal;HPM_P1;HPM_P2
2022/04/24 00:02:24;;;;;;;3.65;0.47;;;8.70;99.90;;;;;;5038016;28;20036;-75
2022/04/24 00:04:50;;;;;;;0.93;0.43;;;8.60;99.90;;;;;;5034869;28;20017;-75
2022/04/24 00:07:19;;;;;;;1.15;0.47;;;8.50;99.90;;;;;;5036316;28;20029;-75
2022/04/24 00:09:45;;;;;;;1.20;0.40;;;8.50;99.90;;;;;;5037446;28;20053;-75
2022/04/24 00:12:15;;;;;;;0.50;0.50;;;8.40;99.90;;;;;;5035990;28;20037;-75
2022/04/24 00:14:44;;;;;;;0.50;0.40;;;8.50;99.90;;;;;;5035364;28;20045;-76
2022/04/24 00:17:11;;;;;;;0.60;0.57;;;8.40;99.90;;;;;;5035274;28;20108;-75
2022/04/24 00:19:36;;;;;;;0.70;0.50;;;8.40;99.90;;;;;;5035094;28;20040;-76
2022/04/24 00:22:02;;;;;;;0.40;0.32;;;8.40;99.90;;;;;;5034627;28;20029;-76
2022/04/24 00:24:28;;;;;;;0.35;0.30;;;8.40;99.90;;;;;;5034703;28;20025;-76
2022/04/24 00:26:55;;;;;;;1.02;0.40;;;8.20;99.90;;;;;;5034853;28;20028;-76
2022/04/24 00:29:21;;;;;;;0.45;0.30;;;8.20;99.90;;;;;;5037529;28;20022;-75
2022/04/24 00:31:47;;;;;;;1.23;0.30;;;8.20;99.90;;;;;;5034582;28;20076;-75
2022/04/24 00:34:13;;;;;;;0.30;0.30;;;8.20;99.90;;;;;;5033874;28;20013;-75
2022/04/24 00:36:39;;;;;;;0.20;0.20;;;8.10;99.90;;;;;;5034333;28;20033;-75
2022/04/24 00:39:05;;;;;;;0.80;0.20;;;8.10;99.90;;;;;;5034567;28;20017;-75
2022/04/24 00:41:32;;;;;;;0.30;0.30;;;8.00;99.90;;;;;;5035016;28;20489;-75
2022/04/24 00:43:57;;;;;;;0.90;0.30;;;8.00;99.90;;;;;;5037714;28;20030;-75
2022/04/24 00:46:40;;;;;;;0.30;0.30;;;7.90;99.90;;;;;;5040313;28;20397;-75
2022/04/24 00:49:12;;;;;;;0.30;0.25;;;7.90;99.90;;;;;;5038351;28;20045;-75
2022/04/24 00:51:39;;;;;;;0.45;0.30;;;7.80;99.90;;;;;;5034991;28;20033;-76
2022/04/24 00:54:09;;;;;;;0.28;0.28;;;7.80;99.90;;;;;;5035195;28;20030;-76
2022/04/24 00:56:37;;;;;;;0.28;0.20;;;7.80;99.90;;;;;;5036498;28;20386;-76
2022/04/24 00:59:05;;;;;;;1.42;0.20;;;7.70;99.90;;;;;;5036467;28;20032;-76
2022/04/24 01:01:34;;;;;;;0.20;0.20;;;7.70;99.90;;;;;;5036064;28;20025;-75
2022/04/24 01:04:05;;;;;;;0.17;0.17;;;7.60;99.90;;;;;;5035143;28;20018;-76
2022/04/24 01:06:34;;;;;;;0.47;0.25;;;7.60;99.90;;;;;;5035945;28;20049;-76
2022/04/24 01:09:22;;;;;;;0.20;0.20;;;7.60;99.90;;;;;;5036512;28;20025;-76
2022/04/24 01:11:52;;;;;;;0.17;0.17;;;7.50;99.90;;;;;;5035952;28;20060;-76
2022/04/24 01:14:19;;;;;;;0.40;0.40;;;7.50;99.90;;;;;;5035572;28;20041;-75
2022/04/24 01:16:46;;;;;;;0.13;0.13;;;7.40;99.90;;;;;;5035817;28;20032;-76
2022/04/24 01:19:13;;;;;;;0.30;0.10;;;7.40;99.90;;;;;;5036488;28;20474;-76
2022/04/24 01:21:43;;;;;;;0.10;0.10;;;7.40;99.90;;;;;;5035385;28;20033;-75
2022/04/24 01:24:10;;;;;;;1.27;0.20;;;7.40;99.90;;;;;;5035306;28;20474;-75
2022/04/24 01:26:37;;;;;;;0.10;0.10;;;7.30;99.90;;;;;;5036325;28;20027;-75
2022/04/24 01:29:09;;;;;;;0.13;0.13;;;7.30;99.90;;;;;;5037362;28;20105;-75
2022/04/24 01:31:35;;;;;;;0.15;0.15;;;7.30;99.90;;;;;;5035178;28;20048;-75
2022/04/24 01:34:01;;;;;;;1.38;0.20;;;7.20;99.90;;;;;;5035612;28;20021;-75
2022/04/24 01:36:27;;;;;;;1.30;0.13;;;7.20;99.90;;;;;;5036507;28;20029;-75
2022/04/24 01:38:53;;;;;;;0.20;0.20;;;7.20;99.90;;;;;;5037469;28;20036;-75
2022/04/24 01:41:18;;;;;;;0.20;0.10;;;7.20;99.90;;;;;;5037085;28;20402;-76
2022/04/24 01:43:44;;;;;;;0.00;0.00;;;7.10;99.90;;;;;;5037277;28;20025;-75
2022/04/24 01:46:11;;;;;;;0.13;0.10;;;7.10;99.90;;;;;;5036615;28;20034;-75
2022/04/24 01:48:37;;;;;;;0.10;0.10;;;7.20;99.90;;;;;;5038370;28;20021;-76
2022/04/24 01:51:04;;;;;;;0.10;0.10;;;7.20;99.90;;;;;;5037493;28;20040;-75
2022/04/24 01:53:30;;;;;;;0.10;0.10;;;7.10;99.90;;;;;;5037485;28;20702;-75
2022/04/24 01:55:57;;;;;;;0.10;0.10;;;7.10;99.90;;;;;;5035838;28;20021;-76
2022/04/24 01:58:23;;;;;;;1.85;0.40;;;7.10;99.90;;;;;;5037653;28;20026;-75
2022/04/24 02:00:49;;;;;;;0.10;0.10;;;7.10;99.90;;;;;;5038448;28;20029;-76
2022/04/24 02:03:15;;;;;;;0.10;0.10;;;7.00;99.90;;;;;;5036852;28;20018;-76
2022/04/24 02:05:41;;;;;;;0.32;0.20;;;7.00;99.90;;;;;;5034753;28;20037;-75
2022/04/24 02:08:06;;;;;;;0.75;0.10;;;7.00;99.90;;;;;;5035626;28;20045;-75
2022/04/24 02:10:32;;;;;;;0.20;0.20;;;7.00;99.90;;;;;;5035263;28;20398;-76
2022/04/24 02:12:58;;;;;;;0.10;0.10;;;7.00;99.90;;;;;;5035572;28;20021;-76
2022/04/24 02:15:24;;;;;;;0.17;0.17;;;7.00;99.90;;;;;;5035162;28;20064;-75
2022/04/24 02:17:51;;;;;;;0.20;0.20;;;7.00;99.90;;;;;;5033602;28;20025;-75
2022/04/24 02:20:17;;;;;;;0.20;0.20;;;6.90;99.90;;;;;;5032989;28;20025;-76
2022/04/24 02:22:43;;;;;;;0.10;0.10;;;6.90;99.90;;;;;;5033598;28;20083;-76
2022/04/24 02:25:08;;;;;;;0.10;0.10;;;6.90;99.90;;;;;;5032957;28;20036;-76
2022/04/24 02:27:34;;;;;;;0.47;0.20;;;6.90;99.90;;;;;;5034311;28;20101;-75
2022/04/24 02:30:00;;;;;;;0.20;0.13;;;6.90;99.90;;;;;;5033943;28;20113;-76
2022/04/24 02:32:26;;;;;;;0.13;0.13;;;6.80;99.90;;;;;;5032360;28;20544;-76
2022/04/24 02:34:52;;;;;;;0.10;0.10;;;6.80;99.90;;;;;;5034332;28;20048;-77
2022/04/24 02:37:18;;;;;;;0.20;0.20;;;6.80;99.90;;;;;;5036767;28;20036;-77
2022/04/24 02:39:43;;;;;;;1.65;0.20;;;6.70;99.90;;;;;;5036745;28;20172;-76
2022/04/24 02:42:09;;;;;;;0.70;0.10;;;6.70;99.90;;;;;;5037272;28;20030;-76
2022/04/24 02:44:35;;;;;;;0.98;0.20;;;6.70;99.90;;;;;;5037932;28;20104;-76
2022/04/24 02:47:01;;;;;;;0.77;0.10;;;6.70;99.90;;;;;;5037193;28;20022;-76
2022/04/24 02:49:27;;;;;;;0.25;0.25;;;6.60;99.90;;;;;;5037292;28;20096;-76
2022/04/24 02:51:54;;;;;;;1.67;0.30;;;6.70;99.90;;;;;;5035151;28;20072;-77
2022/04/24 02:54:20;;;;;;;0.30;0.30;;;6.70;99.90;;;;;;5037083;28;20037;-77
2022/04/24 02:56:47;;;;;;;1.95;0.25;;;6.80;99.90;;;;;;5041492;28;20025;-76
2022/04/24 02:59:15;;;;;;;0.28;0.17;;;6.80;99.90;;;;;;5039196;28;20025;-76
2022/04/24 03:01:41;;;;;;;1.65;0.40;;;6.70;99.90;;;;;;5040133;28;20030;-75
2022/04/24 03:04:06;;;;;;;0.20;0.20;;;6.70;99.90;;;;;;5039838;28;20026;-76
2022/04/24 03:06:35;;;;;;;1.88;0.20;;;6.70;99.90;;;;;;5040355;28;20424;-76
2022/04/24 03:09:00;;;;;;;4.03;0.22;;;6.70;99.90;;;;;;5041811;28;20030;-76
2022/04/24 03:11:26;;;;;;;1.67;0.25;;;6.70;99.90;;;;;;5042064;28;20041;-75
2022/04/24 03:13:53;;;;;;;0.20;0.20;;;6.70;99.90;;;;;;5040913;28;20099;-76
2022/04/24 03:16:19;;;;;;;1.13;0.30;;;6.70;99.90;;;;;;5038588;28;20041;-76
2022/04/24 03:18:44;;;;;;;0.20;0.20;;;6.70;99.90;;;;;;5040968;28;20026;-76
2022/04/24 03:21:13;;;;;;;0.20;0.20;;;6.70;99.90;;;;;;5040990;28;20025;-77
2022/04/24 03:23:39;;;;;;;0.17;0.17;;;6.70;99.90;;;;;;5036650;28;20056;-78
2022/04/24 03:26:05;;;;;;;4.38;0.20;;;6.70;99.90;;;;;;5035587;28;20613;-77
2022/04/24 03:28:30;;;;;;;0.25;0.20;;;6.70;99.90;;;;;;5036634;28;20335;-76
2022/04/24 03:30:56;;;;;;;1.35;0.30;;;6.70;99.90;;;;;;5039303;28;20041;-78
2022/04/24 03:33:22;;;;;;;0.22;0.22;;;6.70;99.90;;;;;;5036661;28;20470;-78
2022/04/24 03:35:48;;;;;;;0.45;0.20;;;6.70;99.90;;;;;;5037180;28;20033;-78
2022/04/24 03:38:13;;;;;;;0.38;0.20;;;6.70;99.90;;;;;;5034030;28;20444;-77
2022/04/24 03:40:39;;;;;;;1.25;0.30;;;6.70;99.90;;;;;;5033696;28;20466;-78
2022/04/24 03:43:05;;;;;;;0.52;0.20;;;6.60;99.90;;;;;;5033723;28;20076;-77
2022/04/24 03:45:31;;;;;;;0.20;0.20;;;6.70;99.90;;;;;;5034913;28;20355;-77
2022/04/24 03:47:57;;;;;;;0.20;0.20;;;6.70;99.90;;;;;;5042853;28;20036;-77
2022/04/24 03:50:22;;;;;;;0.30;0.22;;;6.70;99.90;;;;;;5058117;28;20029;-77
2022/04/24 03:52:48;;;;;;;0.20;0.20;;;6.60;99.90;;;;;;5057554;28;20099;-75
2022/04/24 03:55:14;;;;;;;0.40;0.30;;;6.70;99.90;;;;;;5053913;28;20021;-77
2022/04/24 03:57:40;;;;;;;1.33;0.20;;;6.70;99.90;;;;;;5052551;28;20075;-77
2022/04/24 04:00:09;;;;;;;0.10;0.10;;;6.60;99.90;;;;;;5052762;28;20115;-78
2022/04/24 04:02:42;;;;;;;;;;;6.60;99.90;;;;;;5057463;28;20025;-76
2022/04/24 04:05:08;;;;;;;1.05;0.20;;;6.60;99.90;;;;;;5059522;28;20015;-77
2022/04/24 04:07:34;;;;;;;2.17;0.30;;;6.50;99.90;;;;;;5064223;28;20127;-78
2022/04/24 04:10:00;;;;;;;0.28;0.20;;;6.50;99.90;;;;;;5053773;28;20465;-77
2022/04/24 04:12:27;;;;;;;0.40;0.40;;;6.50;99.90;;;;;;5039124;28;20033;-78
2022/04/24 04:14:53;;;;;;;0.40;0.20;;;6.40;99.90;;;;;;5049613;28;20132;-77
2022/04/24 04:17:19;;;;;;;1.65;0.20;;;6.50;99.90;;;;;;5049870;28;20452;-78
2022/04/24 04:19:44;;;;;;;0.30;0.30;;;6.40;99.90;;;;;;5030428;28;20021;-78
2022/04/24 04:22:10;;;;;;;0.30;0.30;;;6.40;99.90;;;;;;5031805;28;20494;-78
2022/04/24 04:24:36;;;;;;;2.63;0.30;;;6.30;99.90;;;;;;5031706;28;20041;-77
2022/04/24 04:27:03;;;;;;;0.32;0.32;;;6.40;99.90;;;;;;5031399;28;20026;-77
2022/04/24 04:29:29;;;;;;;0.30;0.20;;;6.30;99.90;;;;;;5032975;28;20075;-77
2022/04/24 04:31:55;;;;;;;0.55;0.50;;;6.30;99.90;;;;;;5050723;28;20045;-76
2022/04/24 04:34:21;;;;;;;0.20;0.20;;;6.30;99.90;;;;;;5054005;28;20097;-76
2022/04/24 04:36:47;;;;;;;0.20;0.20;;;6.30;99.90;;;;;;5051269;28;20104;-77
2022/04/24 04:39:13;;;;;;;0.30;0.30;;;6.30;99.90;;;;;;5043534;28;20466;-78
2022/04/24 04:41:40;;;;;;;0.38;0.30;;;6.30;99.90;;;;;;5044359;28;20070;-77
2022/04/24 04:44:06;;;;;;;0.32;0.32;;;6.30;99.90;;;;;;5047916;28;20390;-77
2022/04/24 04:46:31;;;;;;;0.20;0.20;;;6.30;99.90;;;;;;5038628;28;20032;-77
2022/04/24 04:48:57;;;;;;;1.75;0.30;;;6.20;99.90;;;;;;5031455;28;20021;-79
2022/04/24 04:51:23;;;;;;;0.20;0.20;;;6.20;99.90;;;;;;5030927;28;20616;-77
2022/04/24 04:53:51;;;;;;;0.30;0.30;;;6.20;99.90;;;;;;5030612;28;20017;-77
2022/04/24 04:56:17;;;;;;;0.28;0.28;;;6.20;99.90;;;;;;5028961;28;20017;-79
2022/04/24 04:58:43;;;;;;;0.50;0.20;;;6.30;99.90;;;;;;5041097;28;20021;-78
2022/04/24 05:01:08;;;;;;;2.30;0.30;;;6.30;99.90;;;;;;5049931;28;20474;-77
2022/04/24 05:03:34;;;;;;;1.70;0.30;;;6.40;99.90;;;;;;5048768;28;20023;-78
2022/04/24 05:06:00;;;;;;;1.48;0.20;;;6.50;99.90;;;;;;5048041;28;20114;-77
2022/04/24 05:08:26;;;;;;;0.73;0.32;;;6.50;99.90;;;;;;5047339;28;20421;-79
2022/04/24 05:10:51;;;;;;;0.60;0.25;;;6.50;99.90;;;;;;5047600;28;20114;-77
2022/04/24 05:13:17;;;;;;;0.47;0.43;;;6.60;99.90;;;;;;5046402;28;20032;-77
2022/04/24 05:15:43;;;;;;;1.10;0.25;;;6.60;99.90;;;;;;5046880;28;20452;-79
2022/04/24 05:18:08;;;;;;;0.47;0.35;;;6.60;99.90;;;;;;5046795;28;20394;-78
2022/04/24 05:20:34;;;;;;;1.17;0.65;;;6.60;99.90;;;;;;5046729;28;20398;-77
2022/04/24 05:23:07;;;;;;;0.60;0.60;;;6.60;99.90;;;;;;5048884;28;20029;-79
2022/04/24 05:25:34;;;;;;;0.90;0.40;;;6.70;99.90;;;;;;5042937;28;20497;-76
2022/04/24 05:28:02;;;;;;;0.65;0.65;;;6.80;99.90;;;;;;5038574;28;20071;-76
2022/04/24 05:30:28;;;;;;;0.40;0.40;;;6.90;99.90;;;;;;5029762;28;20034;-76
2022/04/24 05:32:55;;;;;;;3.60;0.60;;;6.90;99.90;;;;;;5028860;28;20036;-76
2022/04/24 05:35:21;;;;;;;3.40;0.60;;;6.90;99.90;;;;;;5042589;28;20018;-76
2022/04/24 05:37:47;;;;;;;1.73;0.60;;;6.90;99.90;;;;;;5049781;28;20028;-76
2022/04/24 05:40:14;;;;;;;2.40;1.23;;;7.00;99.90;;;;;;5048437;28;20017;-78
2022/04/24 05:42:54;;;;;;;0.90;0.68;;;7.00;99.90;;;;;;5046755;28;20427;-78
2022/04/24 05:45:27;;;;;;;1.65;1.27;;;7.20;99.90;;;;;;5044659;28;20051;-78
2022/04/24 05:47:54;;;;;;;3.25;1.65;;;7.10;99.90;;;;;;5046856;28;20041;-77
2022/04/24 05:50:23;;;;;;;4.35;2.65;;;8.80;99.90;;;;;;5045932;28;20099;-77
2022/04/24 05:52:49;;;;;;;3.00;2.25;;;7.20;99.90;;;;;;5046330;28;20032;-78
2022/04/24 05:55:15;;;;;;;1.40;1.30;;;7.30;99.90;;;;;;5046751;28;20461;-78
2022/04/24 05:57:41;;;;;;;3.30;1.80;;;7.40;99.90;;;;;;5046737;28;20497;-77
2022/04/24 06:00:11;;;;;;;1.92;1.30;;;7.50;99.90;;;;;;5052566;28;20497;-77
2022/04/24 06:02:36;;;;;;;1.98;1.73;;;7.50;99.90;;;;;;5051718;28;20048;-77
2022/04/24 06:05:02;;;;;;;2.25;2.05;;;7.40;99.90;;;;;;5046872;28;20053;-77
2022/04/24 06:07:28;;;;;;;1.65;1.55;;;7.50;99.90;;;;;;5046848;28;20129;-77
2022/04/24 06:09:54;;;;;;;3.70;2.38;;;7.60;99.90;;;;;;5045573;28;20031;-77
2022/04/24 06:12:20;;;;;;;3.10;2.80;;;7.60;99.90;;;;;;5046588;28;20123;-77
2022/04/24 06:14:46;;;;;;;3.95;2.85;;;7.70;99.90;;;;;;5046454;28;20048;-77
2022/04/24 06:17:11;;;;;;;4.88;2.67;;;7.60;99.90;;;;;;5046803;28;20497;-76
2022/04/24 06:19:37;;;;;;;3.17;2.60;;;7.70;99.90;;;;;;5046934;28;20048;-77
2022/04/24 06:22:03;;;;;;;5.28;2.70;;;7.70;99.90;;;;;;5046346;28;20107;-77
2022/04/24 06:24:29;;;;;;;3.65;2.75;;;7.80;99.90;;;;;;5049628;28;20139;-76
2022/04/24 06:26:55;;;;;;;3.63;2.78;;;7.80;99.90;;;;;;5052260;28;20021;-75
2022/04/24 06:29:21;;;;;;;3.55;3.08;;;7.80;99.90;;;;;;5049358;28;20019;-74
2022/04/24 06:31:46;;;;;;;3.70;3.17;;;7.80;99.90;;;;;;5047195;28;20068;-75
2022/04/24 06:34:12;;;;;;;4.10;3.20;;;7.90;99.90;;;;;;5047332;28;20035;-75
2022/04/24 06:36:38;;;;;;;7.18;2.95;;;8.10;99.90;;;;;;5048582;28;20560;-74
2022/04/24 06:39:04;;;;;;;3.65;3.10;;;8.10;99.90;;;;;;5047278;28;20025;-76
2022/04/24 06:41:29;;;;;;;4.05;2.95;;;8.20;99.90;;;;;;5049450;28;20029;-76
2022/04/24 06:43:55;;;;;;;3.42;2.88;;;8.20;99.90;;;;;;5047568;28;20322;-74
2022/04/24 06:46:23;;;;;;;3.58;2.60;;;8.40;99.90;;;;;;5048614;28;20377;-75
2022/04/24 06:48:49;;;;;;;3.55;2.70;;;8.40;99.90;;;;;;5048482;28;20029;-75
2022/04/24 06:51:15;;;;;;;2.40;2.20;;;8.60;99.90;;;;;;5049525;28;20033;-76
2022/04/24 06:53:41;;;;;;;2.25;2.03;;;8.70;99.90;;;;;;5047528;28;20175;-77
2022/04/24 06:56:07;;;;;;;2.20;2.00;;;8.60;99.90;;;;;;5046957;28;20489;-76
2022/04/24 06:58:33;;;;;;;2.20;1.95;;;8.70;99.90;;;;;;5048799;28;20060;-76
2022/04/24 07:00:59;;;;;;;2.65;1.70;;;8.70;99.90;;;;;;5047767;28;20074;-75
2022/04/24 07:03:26;;;;;;;2.42;1.77;;;8.80;99.90;;;;;;5051924;28;20025;-75
2022/04/24 07:06:00;;;;;;;2.78;1.88;;;8.90;99.90;;;;;;5053190;28;20080;-74
2022/04/24 07:08:26;;;;;;;2.45;1.70;;;9.10;99.90;;;;;;5053905;28;20116;-75
2022/04/24 07:10:53;;;;;;;1.83;1.60;;;9.10;99.90;;;;;;5055262;28;20045;-75
2022/04/24 07:13:19;;;;;;;1.92;1.83;;;9.30;99.90;;;;;;5053541;28;20027;-75
2022/04/24 07:15:45;;;;;;;7.10;5.00;;;9.50;99.90;;;;;;5053178;28;20035;-75
2022/04/24 07:18:11;;;;;;;4.22;2.08;;;9.40;99.90;;;;;;5051238;28;20025;-76
2022/04/24 07:20:37;;;;;;;0.90;0.90;;;9.30;99.90;;;;;;5051350;28;20021;-75
2022/04/24 07:23:05;;;;;;;2.05;1.00;;;9.20;99.90;;;;;;5052923;28;20021;-78
2022/04/24 07:25:37;;;;;;;1.27;1.17;;;9.00;99.90;;;;;;5049601;28;20021;-76
2022/04/24 07:28:04;;;;;;;1.30;1.20;;;9.20;99.90;;;;;;5051512;28;20032;-75
2022/04/24 07:30:30;;;;;;;0.90;0.80;;;9.40;99.90;;;;;;5051548;28;20041;-74
2022/04/24 07:32:57;;;;;;;1.80;0.80;;;9.60;99.90;;;;;;5050831;28;20501;-76
2022/04/24 07:35:28;;;;;;;1.00;0.80;;;9.30;99.90;;;;;;5045263;28;20382;-78
2022/04/24 07:37:54;;;;;;;0.80;0.80;;;9.60;99.90;;;;;;5049887;28;20032;-75
2022/04/24 07:40:22;;;;;;;0.60;0.60;;;9.80;99.90;;;;;;5034391;28;20255;-76
2022/04/24 07:42:56;;;;;;;0.40;0.40;;;10.00;99.90;;;;;;5031187;28;20264;-75
2022/04/24 07:45:29;;;;;;;1.90;0.80;;;10.20;99.90;;;;;;5029999;28;20056;-75
2022/04/24 07:47:55;;;;;;;0.60;0.60;;;10.40;99.90;;;;;;5030078;28;20025;-75
2022/04/24 07:50:23;;;;;;;0.70;0.70;;;10.20;99.90;;;;;;5049580;28;20025;-75
2022/04/24 07:52:50;;;;;;;0.85;0.85;;;10.50;99.90;;;;;;5049645;28;20031;-75
2022/04/24 07:55:18;;;;;;;0.77;0.77;;;10.90;99.90;;;;;;5049802;28;20422;-75
2022/04/24 07:57:45;;;;;;;0.73;0.70;;;11.30;99.90;;;;;;5049188;28;20025;-75
2022/04/24 08:00:11;;;;;;;1.48;0.68;;;11.20;99.90;;;;;;5049633;28;20118;-75
2022/04/24 08:02:57;;;;;;;0.85;0.55;;;11.20;99.90;;;;;;5050142;28;20491;-75
2022/04/24 08:05:28;;;;;;;0.82;0.60;;;11.40;99.90;;;;;;5047943;28;20458;-75
2022/04/24 08:07:56;;;;;;;0.70;0.70;;;11.60;99.90;;;;;;5050177;28;20497;-75
2022/04/24 08:10:23;;;;;;;1.08;0.43;;;11.50;99.90;;;;;;5048421;28;20036;-75
2022/04/24 08:12:49;;;;;;;0.55;0.47;;;11.10;99.90;;;;;;5049365;28;20060;-75
2022/04/24 08:15:16;;;;;;;0.45;0.45;;;11.10;99.90;;;;;;5049338;28;20152;-76
2022/04/24 08:17:42;;;;;;;0.60;0.60;;;11.20;99.90;;;;;;5049141;28;20047;-77
2022/04/24 08:20:09;;;;;;;0.47;0.47;;;11.10;99.90;;;;;;5050853;28;20024;-74
2022/04/24 08:22:48;;;;;;;0.40;0.40;;;10.70;99.90;;;;;;5050971;28;20083;-75
2022/04/24 08:25:17;;;;;;;0.40;0.40;;;11.50;99.90;;;;;;5049627;28;20033;-76
2022/04/24 08:27:44;;;;;;;0.37;0.37;;;11.70;99.90;;;;;;5050626;28;20029;-75
2022/04/24 08:30:13;;;;;;;0.40;0.40;;;11.80;99.90;;;;;;5051553;28;20415;-75
2022/04/24 08:32:40;;;;;;;0.30;0.30;;;12.00;99.90;;;;;;5048695;28;20025;-75
2022/04/24 08:35:08;;;;;;;0.20;0.20;;;12.30;99.90;;;;;;5039347;28;20041;-76
2022/04/24 08:37:34;;;;;;;0.38;0.35;;;12.50;99.90;;;;;;5032308;28;20025;-75
2022/04/24 08:40:00;;;;;;;0.30;0.28;;;12.30;99.90;;;;;;5029292;28;20037;-75
2022/04/24 08:42:26;;;;;;;0.52;0.50;;;11.80;99.90;;;;;;5033062;28;20123;-74
2022/04/24 08:44:57;;;;;;;0.30;0.30;;;12.10;99.90;;;;;;5032672;28;20025;-76
2022/04/24 08:47:25;;;;;;;0.38;0.38;;;12.10;99.90;;;;;;5030328;28;20386;-76
2022/04/24 08:49:56;;;;;;;1.73;0.30;;;12.10;99.90;;;;;;5032955;28;20057;-76
2022/04/24 08:52:23;;;;;;;0.10;0.10;;;11.70;99.90;;;;;;5032251;28;20064;-76
2022/04/24 08:54:50;;;;;;;1.17;0.82;;;12.00;99.90;;;;;;5033150;28;20093;-76
2022/04/24 08:57:17;;;;;;;0.30;0.30;;;12.10;99.90;;;;;;5032274;28;20053;-76
2022/04/24 08:59:43;;;;;;;0.65;0.55;;;12.30;99.90;;;;;;5032414;28;20496;-75
2022/04/24 09:02:10;;;;;;;2.20;0.80;;;12.20;99.90;;;;;;5031532;28;20040;-76
2022/04/24 09:04:40;;;;;;;1.02;0.93;;;12.30;99.90;;;;;;5029371;28;20087;-75
2022/04/24 09:07:08;;;;;;;0.98;0.90;;;12.40;99.90;;;;;;5029663;28;20034;-75
2022/04/24 09:09:54;;;;;;;0.80;0.80;;;12.30;99.90;;;;;;5031124;28;20372;-75
2022/04/24 09:12:25;;;;;;;0.30;0.30;;;12.50;99.90;;;;;;5030321;28;20064;-76
2022/04/24 09:14:53;;;;;;;0.20;0.20;;;12.30;99.90;;;;;;5030635;28;20592;-77
2022/04/24 09:17:27;;;;;;;0.73;0.28;;;12.30;99.90;;;;;;5030590;28;20029;-76
2022/04/24 09:19:55;;;;;;;0.20;0.20;;;12.20;99.90;;;;;;5028804;28;20359;-75
2022/04/24 09:22:22;;;;;;;0.13;0.13;;;12.00;99.90;;;;;;5030686;28;20024;-77
2022/04/24 09:24:49;;;;;;;0.22;0.20;;;12.00;99.90;;;;;;5049924;28;20112;-80
2022/04/24 09:27:28;;;;;;;0.17;0.17;;;12.10;99.90;;;;;;5048930;28;20489;-75
2022/04/24 09:29:56;;;;;;;2.85;1.92;;;12.10;99.90;;;;;;5050718;28;20473;-76
2022/04/24 09:32:24;;;;;;;1.17;0.60;;;12.10;99.90;;;;;;5049167;28;20500;-75
2022/04/24 09:34:50;;;;;;;0.20;0.10;;;12.20;99.90;;;;;;5040135;28;20025;-76
2022/04/24 09:37:16;;;;;;;1.40;0.30;;;12.20;99.90;;;;;;5026598;28;20033;-75
2022/04/24 09:39:42;;;;;;;0.30;0.30;;;12.30;99.90;;;;;;5025646;28;20292;-76
2022/04/24 09:42:15;;;;;;;0.10;0.10;;;12.20;99.90;;;;;;5043616;28;20113;-75
2022/04/24 09:44:49;;;;;;;0.20;0.20;;;12.00;99.90;;;;;;5045874;28;20055;-75
2022/04/24 09:47:18;;;;;;;0.30;0.30;;;12.40;99.90;;;;;;5047377;28;20589;-74
2022/04/24 09:49:50;;;;;;;;;;;12.50;99.90;;;;;;5050368;28;20029;-76
2022/04/24 09:52:24;;;;;;;1.95;0.25;;;12.40;99.90;;;;;;5047703;28;20007;-76
2022/04/24 09:54:55;;;;;;;0.10;0.10;;;12.50;99.90;;;;;;5048865;28;20044;-75
2022/04/24 09:57:24;;;;;;;0.20;0.20;;;12.30;99.90;;;;;;5046926;28;20083;-76
2022/04/24 09:59:56;;;;;;;0.20;0.20;;;12.30;99.90;;;;;;5039203;28;20136;-75
2022/04/24 10:02:22;;;;;;;1.13;0.38;;;12.30;99.90;;;;;;5046982;28;20028;-75
2022/04/24 10:04:48;;;;;;;5.43;2.80;;;12.20;99.90;;;;;;5029274;28;20445;-74
2022/04/24 10:07:16;;;;;;;0.65;0.38;;;12.20;99.90;;;;;;5029023;28;20537;-75
2022/04/24 10:09:44;;;;;;;0.90;0.30;;;12.20;99.90;;;;;;5029900;28;20029;-75
2022/04/24 10:12:15;;;;;;;0.10;0.10;;;12.10;99.90;;;;;;5029480;28;20251;-74
2022/04/24 10:15:05;;;;;;;0.20;0.20;;;11.90;99.90;;;;;;5049931;28;20049;-75
2022/04/24 10:17:49;;;;;;;0.10;0.10;;;11.90;99.90;;;;;;5049924;28;20025;-74
2022/04/24 10:20:34;;;;;;;0.30;0.30;;;11.80;99.90;;;;;;5050613;28;20040;-77
2022/04/24 10:23:00;;;;;;;0.20;0.20;;;11.70;99.90;;;;;;5049253;28;20663;-74
2022/04/24 10:25:52;;;;;;;0.20;0.20;;;11.60;99.90;;;;;;5048683;28;20128;-74
2022/04/24 10:28:21;;;;;;;0.35;0.20;;;11.20;99.90;;;;;;5046735;28;20124;-77
2022/04/24 10:31:00;;;;;;;0.28;0.20;;;11.80;99.90;;;;;;5049386;28;20107;-75
2022/04/24 10:33:34;;;;;;;0.35;0.35;;;11.70;99.90;;;;;;5048631;28;20413;-74
2022/04/24 10:36:11;;;;;;;0.82;0.38;;;11.60;99.90;;;;;;5029306;28;20075;-74
2022/04/24 10:38:52;;;;;;;2.28;0.30;;;11.60;99.90;;;;;;5029122;28;20097;-74
2022/04/24 10:41:23;;;;;;;0.35;0.30;;;11.60;99.90;;;;;;5028971;28;20036;-74
2022/04/24 10:43:54;;;;;;;0.20;0.20;;;11.80;99.90;;;;;;5029611;28;20099;-74
2022/04/24 10:46:20;;;;;;;0.40;0.40;;;11.80;99.90;;;;;;5029053;28;20021;-75
2022/04/24 10:48:49;;;;;;;0.30;0.30;;;11.90;99.90;;;;;;5029676;28;20033;-74
2022/04/24 10:51:32;;;;;;;0.22;0.20;;;11.80;99.90;;;;;;5027876;28;20434;-75
2022/04/24 10:54:05;;;;;;;0.20;0.20;;;11.60;99.90;;;;;;5027571;28;20082;-75
2022/04/24 10:56:32;;;;;;;0.50;0.38;;;11.60;99.90;;;;;;5026129;28;20501;-74
2022/04/24 10:59:18;;;;;;;2.10;0.40;;;11.60;99.90;;;;;;5029667;28;20025;-74
2022/04/24 11:01:51;;;;;;;0.20;0.20;;;11.50;99.90;;;;;;5029923;28;20140;-74
2022/04/24 11:04:19;;;;;;;0.30;0.30;;;11.40;99.90;;;;;;5028410;28;20112;-74
2022/04/24 11:06:57;;;;;;;0.38;0.38;;;11.40;99.90;;;;;;5028026;28;20026;-74
2022/04/24 11:09:28;;;;;;;0.40;0.40;;;11.60;99.90;;;;;;5027179;28;20035;-76
2022/04/24 11:12:07;;;;;;;0.40;0.40;;;11.70;99.90;;;;;;5028328;28;20245;-76
2022/04/24 11:14:35;;;;;;;0.50;0.40;;;11.60;99.90;;;;;;5029433;28;20145;-75
2022/04/24 11:17:03;;;;;;;0.40;0.40;;;11.70;99.90;;;;;;5027881;28;20153;-76
2022/04/24 11:19:31;;;;;;;1.13;0.50;;;11.80;99.90;;;;;;5027905;28;20044;-76
2022/04/24 11:22:03;;;;;;;0.35;0.35;;;11.80;99.90;;;;;;5024436;28;20124;-77
2022/04/24 11:24:38;;;;;;;0.50;0.40;;;12.00;99.90;;;;;;5026903;28;20100;-76
2022/04/24 11:27:09;;;;;;;0.28;0.28;;;12.00;99.90;;;;;;5027397;28;20044;-75
2022/04/24 11:29:35;;;;;;;0.38;0.22;;;11.80;99.90;;;;;;5028236;28;20474;-75
2022/04/24 11:32:02;;;;;;;1.02;0.20;;;11.70;99.90;;;;;;5026248;28;20375;-75
2022/04/24 11:34:31;;;;;;;0.32;0.32;;;11.60;99.90;;;;;;5032159;28;20033;-75
2022/04/24 11:36:58;;;;;;;0.30;0.30;;;11.20;99.90;;;;;;5046944;28;20008;-75
2022/04/24 11:39:25;;;;;;;0.30;0.30;;;11.20;99.90;;;;;;5047300;28;20021;-75
2022/04/24 11:41:52;;;;;;;0.45;0.40;;;11.20;99.90;;;;;;5050777;28;20029;-75
2022/04/24 11:50:14;;;;;;;0.40;0.40;;;10.90;99.90;;;;;;5052885;28;20496;-75
2022/04/24 11:52:44;;;;;;;0.68;0.68;;;11.20;99.90;;;;;;5051889;28;20036;-75
2022/04/24 11:55:12;;;;;;;0.40;0.40;;;11.00;99.90;;;;;;5050593;28;20449;-75
2022/04/24 11:57:38;;;;;;;0.30;0.30;;;10.90;99.90;;;;;;5051623;28;20037;-74
2022/04/24 12:00:09;;;;;;;0.47;0.47;;;11.00;99.90;;;;;;5051272;28;20022;-74
2022/04/24 12:02:35;;;;;;;0.38;0.38;;;11.10;99.90;;;;;;5052029;28;20417;-74
2022/04/24 12:05:07;;;;;;;0.28;0.28;;;11.40;99.90;;;;;;5051124;28;20033;-74
2022/04/24 12:07:33;;;;;;;0.13;0.13;;;11.40;99.90;;;;;;5057872;28;20049;-75
2022/04/24 12:10:02;;;;;;;1.48;0.20;;;11.20;99.90;;;;;;5053156;28;20025;-74
2022/04/24 12:12:28;;;;;;;2.05;0.65;;;10.90;99.90;;;;;;5053319;28;20469;-74
2022/04/24 12:14:55;;;;;;;0.57;0.57;;;11.10;99.90;;;;;;5054335;28;20462;-74
2022/04/24 12:17:23;;;;;;;0.40;0.20;;;10.90;99.90;;;;;;5051202;28;20393;-74
2022/04/24 12:19:58;;;;;;;0.63;0.32;;;10.70;99.90;;;;;;5058378;28;20013;-74
2022/04/24 12:22:35;;;;;;;1.00;1.00;;;10.90;99.90;;;;;;5055207;28;20017;-74
2022/04/24 12:25:12;;;;;;;0.30;0.30;;;10.80;99.90;;;;;;5053661;28;20102;-74
2022/04/24 12:27:38;;;;;;;0.30;0.30;;;10.70;99.90;;;;;;5052257;28;20358;-74
2022/04/24 12:30:07;;;;;;;0.30;0.30;;;10.70;99.90;;;;;;5048547;28;20473;-74
2022/04/24 12:32:38;;;;;;;0.17;0.17;;;10.80;99.90;;;;;;5060227;28;20270;-74
2022/04/24 12:35:04;;;;;;;0.22;0.22;;;10.80;99.90;;;;;;5049812;28;20032;-74
2022/04/24 12:37:32;;;;;;;0.28;0.28;;;10.90;99.90;;;;;;5059347;28;20325;-74
2022/04/24 12:39:59;;;;;;;0.22;0.22;;;11.00;99.90;;;;;;5057749;28;20103;-75
2022/04/24 12:42:25;;;;;;;0.65;0.52;;;10.90;99.90;;;;;;5059483;28;20029;-74
2022/04/24 12:44:52;;;;;;;0.40;0.30;;;10.90;99.90;;;;;;5056854;28;20017;-75
2022/04/24 12:47:19;;;;;;;0.22;0.20;;;10.80;99.90;;;;;;5057484;28;20031;-75
2022/04/24 12:49:45;;;;;;;0.30;0.30;;;10.70;99.90;;;;;;5060976;28;20036;-75
2022/04/24 12:52:12;;;;;;;0.30;0.20;;;10.70;99.90;;;;;;5060390;28;20052;-75
2022/04/24 12:54:38;;;;;;;0.38;0.20;;;10.60;99.90;;;;;;5059771;28;20021;-75
2022/04/24 12:57:05;;;;;;;0.47;0.32;;;10.60;99.90;;;;;;5059533;28;20056;-75
2022/04/24 12:59:32;;;;;;;0.20;0.20;;;10.60;99.90;;;;;;5060490;28;20062;-75
2022/04/24 13:01:58;;;;;;;0.60;0.60;;;10.70;99.90;;;;;;5057594;28;20434;-75
2022/04/24 13:04:24;;;;;;;0.60;0.22;;;10.80;99.90;;;;;;5055616;28;20025;-75